Schneifelwetter: Wetterstation Hallschlag, 537 m . NN
Wetterdaten: Donnerstag, 08.11.2012
Datum Zeit Temp. A. Feuchte A. Luftdruck Regen Wind Richtung Richtung Sonnenschein T Regen Taupunkt Windchill
08.11.2012 00:00 5,1 C 95 % 1022 hPa 0,0 l/m 30,6 km/h (5 Bft) W-SW45 255 0 min 0 min 4,4 C -6,4 C
08.11.2012 00:15 4,9 C 95 % 1022 hPa 0,0 l/m 46,1 km/h (6 Bft) W-SW67.5 250 0 min 0 min 4,2 C -9,6 C
08.11.2012 00:30 4,9 C 95 % 1022 hPa 0,0 l/m 23,6 km/h (4 Bft) W-SW45 240 0 min 0 min 4,2 C -4,6 C
08.11.2012 00:45 4,8 C 95 % 1022 hPa 0,0 l/m 30,3 km/h (5 Bft) W-SW22.5 255 0 min 0 min 4,1 C -6,7 C
08.11.2012 01:00 4,7 C 95 % 1021 hPa 0,0 l/m 34,8 km/h (5 Bft) W-SW45 255 0 min 0 min 4,0 C -7,9 C
08.11.2012 01:15 4,7 C 95 % 1021 hPa 0,0 l/m 26,5 km/h (4 Bft) W-SW22.5 255 0 min 0 min 4,0 C -5,8 C
08.11.2012 01:30 4,7 C 94 % 1021 hPa 0,0 l/m 39,4 km/h (6 Bft) W-SW22.5 255 0 min 0 min 3,8 C -8,9 C
08.11.2012 01:45 4,6 C 94 % 1021 hPa 0,0 l/m 35,7 km/h (5 Bft) W-SW45 240 0 min 0 min 3,7 C -8,3 C
08.11.2012 02:01 4,6 C 94 % 1021 hPa 0,0 l/m 26,1 km/h (4 Bft) W-SW22.5 250 0 min 0 min 3,7 C -5,8 C
08.11.2012 02:16 4,5 C 94 % 1021 hPa 0,0 l/m 16,7 km/h (3 Bft) W22.5 260 0 min 0 min 3,6 C -2,4 C
08.11.2012 02:31 4,5 C 94 % 1021 hPa 0,0 l/m 34,8 km/h (5 Bft) W-SW67.5 250 0 min 0 min 3,6 C -8,2 C
08.11.2012 02:46 4,5 C 94 % 1021 hPa 0,0 l/m 26,0 km/h (4 Bft) W45 260 0 min 0 min 3,6 C -5,9 C
08.11.2012 03:01 4,5 C 94 % 1021 hPa 0,0 l/m 27,7 km/h (4 Bft) W22.5 260 0 min 0 min 3,6 C -6,4 C
08.11.2012 03:16 4,5 C 94 % 1021 hPa 0,0 l/m 28,5 km/h (4 Bft) W-SW45 255 0 min 0 min 3,6 C -6,7 C
08.11.2012 03:31 4,4 C 94 % 1021 hPa 0,0 l/m 29,5 km/h (5 Bft) W-SW45 250 0 min 0 min 3,5 C -7,1 C
08.11.2012 03:45 4,5 C 94 % 1020 hPa 0,0 l/m 31,2 km/h (5 Bft) W-SW45 250 0 min 0 min 3,6 C -7,4 C
08.11.2012 04:00 4,5 C 94 % 1020 hPa 0,0 l/m 24,8 km/h (4 Bft) W-SW45 250 0 min 0 min 3,6 C -5,6 C
08.11.2012 04:15 4,4 C 94 % 1020 hPa 0,0 l/m 21,1 km/h (4 Bft) W-SW45 250 0 min 0 min 3,5 C -4,4 C
08.11.2012 04:30 4,4 C 94 % 1020 hPa 0,0 l/m 20,8 km/h (4 Bft) W-SW22.5 250 0 min 0 min 3,5 C -4,3 C
08.11.2012 04:45 4,3 C 94 % 1020 hPa 0,0 l/m 32,2 km/h (5 Bft) W-SW45 255 0 min 0 min 3,4 C -7,9 C
08.11.2012 05:00 4,3 C 93 % 1019 hPa 0,0 l/m 21,6 km/h (4 Bft) W-SW67.5 240 0 min 0 min 3,3 C -4,7 C
08.11.2012 05:15 4,3 C 94 % 1019 hPa 0,0 l/m 30,6 km/h (5 Bft) W-SW45 250 0 min 0 min 3,4 C -7,5 C
08.11.2012 05:30 4,2 C 94 % 1019 hPa 0,0 l/m 25,6 km/h (4 Bft) W-SW45 245 0 min 0 min 3,3 C -6,2 C
08.11.2012 05:45 4,2 C 94 % 1019 hPa 0,0 l/m 27,7 km/h (4 Bft) W45 260 0 min 0 min 3,3 C -6,9 C
08.11.2012 06:00 4,2 C 94 % 1019 hPa 0,0 l/m 31,7 km/h (5 Bft) W-SW45 250 0 min 0 min 3,3 C -7,9 C
08.11.2012 06:15 4,2 C 94 % 1018 hPa 0,0 l/m 33,4 km/h (5 Bft) W-SW22.5 250 0 min 0 min 3,3 C -8,3 C
08.11.2012 06:30 4,2 C 94 % 1018 hPa 0,0 l/m 34,8 km/h (5 Bft) W45 260 0 min 0 min 3,3 C -8,7 C
08.11.2012 06:45 4,2 C 94 % 1018 hPa 0,0 l/m 33,0 km/h (5 Bft) W45 260 0 min 0 min 3,3 C -8,3 C
08.11.2012 07:00 4,2 C 94 % 1018 hPa 0,0 l/m 27,1 km/h (4 Bft) W-SW22.5 250 0 min 0 min 3,3 C -6,7 C
08.11.2012 07:15 4,2 C 94 % 1018 hPa 0,0 l/m 33,3 km/h (5 Bft) W-SW22.5 255 0 min 0 min 3,3 C -8,3 C
08.11.2012 07:30 4,2 C 94 % 1018 hPa 0,0 l/m 30,7 km/h (5 Bft) W45 260 0 min 0 min 3,3 C -7,7 C
08.11.2012 07:45 4,2 C 94 % 1018 hPa 0,0 l/m 26,0 km/h (4 Bft) W-SW45 250 0 min 0 min 3,3 C -6,3 C
08.11.2012 08:00 4,1 C 94 % 1018 hPa 0,0 l/m 29,2 km/h (5 Bft) W-SW22.5 250 0 min 0 min 3,2 C -7,4 C
08.11.2012 08:15 4,1 C 94 % 1019 hPa 0,0 l/m 30,4 km/h (5 Bft) W-SW22.5 255 0 min 0 min 3,2 C -7,7 C
08.11.2012 08:30 4,2 C 94 % 1019 hPa 0,0 l/m 31,1 km/h (5 Bft) W-SW22.5 255 0 min 0 min 3,3 C -7,8 C
08.11.2012 08:45 4,3 C 94 % 1018 hPa 0,0 l/m 29,1 km/h (5 Bft) W-SW45 255 0 min 0 min 3,4 C -7,1 C
08.11.2012 09:00 4,4 C 94 % 1018 hPa 0,0 l/m 21,6 km/h (4 Bft) W-SW45 250 0 min 0 min 3,5 C -4,6 C
08.11.2012 09:15 4,4 C 94 % 1018 hPa 0,0 l/m 24,8 km/h (4 Bft) W-SW45 250 0 min 0 min 3,5 C -5,7 C
08.11.2012 09:30 4,4 C 94 % 1018 hPa 0,0 l/m 25,7 km/h (4 Bft) W-SW22.5 245 0 min 0 min 3,5 C -6,0 C
08.11.2012 09:45 4,4 C 94 % 1018 hPa 0,0 l/m 25,8 km/h (4 Bft) W-SW45 240 0 min 0 min 3,5 C -6,0 C
08.11.2012 10:00 4,4 C 94 % 1018 hPa 0,0 l/m 24,5 km/h (4 Bft) W-SW22.5 250 0 min 0 min 3,5 C -5,6 C
08.11.2012 10:15 4,4 C 94 % 1018 hPa 0,0 l/m 25,0 km/h (4 Bft) W-SW67.5 240 0 min 0 min 3,5 C -5,8 C
08.11.2012 10:30 4,5 C 94 % 1018 hPa 0,0 l/m 25,4 km/h (4 Bft) W-SW45 250 0 min 0 min 3,6 C -5,7 C
08.11.2012 10:45 4,7 C 94 % 1018 hPa 0,0 l/m 28,6 km/h (4 Bft) W-SW45 245 0 min 0 min 3,8 C -6,4 C
08.11.2012 11:00 4,9 C 94 % 1018 hPa 0,0 l/m 25,5 km/h (4 Bft) W-SW45 250 0 min 0 min 4,0 C -5,2 C
08.11.2012 11:15 5,4 C 94 % 1018 hPa 0,0 l/m 25,3 km/h (4 Bft) W-SW22.5 250 0 min 0 min 4,5 C -4,5 C
08.11.2012 11:30 5,6 C 93 % 1018 hPa 0,0 l/m 28,2 km/h (4 Bft) W-SW22.5 255 0 min 0 min 4,6 C -5,1 C
08.11.2012 11:45 5,8 C 92 % 1018 hPa 0,0 l/m 28,0 km/h (4 Bft) W45 260 0 min 0 min 4,6 C -4,7 C
08.11.2012 12:00 5,9 C 92 % 1018 hPa 0,0 l/m 21,6 km/h (4 Bft) W-SW45 255 0 min 0 min 4,7 C -2,6 C
08.11.2012 12:15 5,9 C 91 % 1018 hPa 0,0 l/m 23,8 km/h (4 Bft) W-SW45 245 0 min 0 min 4,5 C -3,3 C
08.11.2012 12:30 6,1 C 90 % 1017 hPa 0,0 l/m 23,9 km/h (4 Bft) W22.5 260 0 min 0 min 4,6 C -3,1 C
08.11.2012 12:45 6,2 C 91 % 1017 hPa 0,0 l/m 26,8 km/h (4 Bft) W-SW45 255 0 min 0 min 4,8 C -3,8 C
08.11.2012 13:01 6,1 C 90 % 1017 hPa 0,0 l/m 17,9 km/h (3 Bft) W-SW22.5 245 0 min 0 min 4,6 C -0,9 C
08.11.2012 13:15 6,0 C 90 % 1017 hPa 0,0 l/m 20,6 km/h (4 Bft) W-SW45 250 0 min 0 min 4,5 C -2,1 C
08.11.2012 13:30 6,1 C 90 % 1017 hPa 0,0 l/m 22,0 km/h (4 Bft) W-SW22.5 240 0 min 0 min 4,6 C -2,5 C
08.11.2012 13:45 6,2 C 89 % 1016 hPa 0,0 l/m 25,1 km/h (4 Bft) W-SW45 240 0 min 0 min 4,5 C -3,3 C
08.11.2012 14:00 6,3 C 90 % 1016 hPa 0,0 l/m 21,8 km/h (4 Bft) SW45 235 0 min 0 min 4,8 C -2,1 C
08.11.2012 14:15 6,1 C 89 % 1016 hPa 0,0 l/m 23,1 km/h (4 Bft) SW67.5 225 0 min 0 min 4,4 C -2,9 C
08.11.2012 14:31 5,9 C 90 % 1017 hPa 0,0 l/m 25,6 km/h (4 Bft) W-SW22.5 255 0 min 0 min 4,4 C -3,9 C
08.11.2012 14:45 5,8 C 90 % 1016 hPa 0,0 l/m 25,5 km/h (4 Bft) W-SW22.5 250 0 min 0 min 4,3 C -4,0 C
08.11.2012 15:00 5,7 C 90 % 1016 hPa 0,0 l/m 19,1 km/h (3 Bft) SW22.5 235 0 min 0 min 4,2 C -1,9 C
08.11.2012 15:15 5,6 C 90 % 1016 hPa 0,0 l/m 21,4 km/h (4 Bft) W-SW45 240 0 min 0 min 4,1 C -2,9 C
08.11.2012 15:30 5,6 C 91 % 1016 hPa 0,0 l/m 25,9 km/h (4 Bft) SW45 235 0 min 0 min 4,2 C -4,4 C
08.11.2012 15:45 5,6 C 90 % 1016 hPa 0,0 l/m 32,2 km/h (5 Bft) W-SW45 250 0 min 0 min 4,1 C -6,1 C
08.11.2012 16:01 5,6 C 91 % 1016 hPa 0,0 l/m 19,0 km/h (3 Bft) SW45 235 0 min 0 min 4,2 C -2,0 C
08.11.2012 16:15 5,3 C 91 % 1016 hPa 0,0 l/m 18,5 km/h (3 Bft) W-SW22.5 250 0 min 0 min 4,0 C -2,2 C
08.11.2012 16:30 5,1 C 91 % 1016 hPa 0,0 l/m 16,8 km/h (3 Bft) W-SW45 245 0 min 0 min 3,8 C -1,7 C
08.11.2012 16:45 4,9 C 92 % 1016 hPa 0,0 l/m 25,5 km/h (4 Bft) SW45 230 0 min 0 min 3,7 C -5,2 C
08.11.2012 17:00 4,8 C 92 % 1016 hPa 0,0 l/m 16,0 km/h (3 Bft) W-SW22.5 250 0 min 0 min 3,6 C -1,7 C
08.11.2012 17:15 4,8 C 93 % 1016 hPa 0,0 l/m 14,7 km/h (3 Bft) SW45 235 0 min 0 min 3,8 C -1,0 C
08.11.2012 17:31 4,6 C 93 % 1016 hPa 0,0 l/m 18,1 km/h (3 Bft) W-SW45 240 0 min 0 min 3,6 C -2,9 C
08.11.2012 17:45 4,5 C 93 % 1016 hPa 0,0 l/m 19,2 km/h (3 Bft) W-SW22.5 240 0 min 0 min 3,5 C -3,5 C
08.11.2012 18:00 4,5 C 93 % 1016 hPa 0,0 l/m 13,8 km/h (3 Bft) W-SW22.5 250 0 min 0 min 3,5 C -0,9 C
08.11.2012 18:15 4,4 C 93 % 1016 hPa 0,0 l/m 12,6 km/h (3 Bft) W-SW22.5 255 0 min 0 min 3,4 C -0,3 C
08.11.2012 18:30 4,3 C 94 % 1016 hPa 0,0 l/m 16,3 km/h (3 Bft) W-SW22.5 250 0 min 0 min 3,4 C -2,4 C
08.11.2012 18:45 4,3 C 94 % 1016 hPa 0,0 l/m 12,7 km/h (3 Bft) W-SW22.5 250 0 min 0 min 3,4 C -0,5 C
08.11.2012 19:01 4,3 C 95 % 1016 hPa 0,0 l/m 12,1 km/h (2 Bft) S-SW22.5 210 0 min 0 min 3,6 C -0,1 C
08.11.2012 19:15 4,3 C 95 % 1016 hPa 0,0 l/m 12,1 km/h (2 Bft) W-SW22.5 250 0 min 0 min 3,6 C -0,1 C
08.11.2012 19:30 4,3 C 95 % 1016 hPa 0,0 l/m 16,3 km/h (3 Bft) W-SW22.5 240 0 min 0 min 3,6 C -2,4 C
08.11.2012 19:45 4,3 C 95 % 1016 hPa 0,0 l/m 9,1 km/h (2 Bft) SW45 235 0 min 0 min 3,6 C 2,0 C
08.11.2012 20:00 4,3 C 96 % 1016 hPa 0,0 l/m 15,0 km/h (3 Bft) W-SW45 250 0 min 0 min 3,7 C -1,8 C
08.11.2012 20:15 4,3 C 96 % 1016 hPa 0,0 l/m 12,7 km/h (3 Bft) SW45 235 0 min 0 min 3,7 C -0,5 C
08.11.2012 20:30 4,3 C 96 % 1016 hPa 0,0 l/m 13,3 km/h (3 Bft) SW45 230 0 min 0 min 3,7 C -0,8 C
08.11.2012 20:45 4,3 C 96 % 1017 hPa 0,0 l/m 13,3 km/h (3 Bft) W-SW22.5 250 0 min 0 min 3,7 C -0,8 C
08.11.2012 21:00 4,3 C 96 % 1017 hPa 0,0 l/m 15,1 km/h (3 Bft) W-SW22.5 250 0 min 0 min 3,7 C -1,8 C
08.11.2012 21:15 4,2 C 96 % 1017 hPa 0,0 l/m 11,6 km/h (2 Bft) SW45 230 0 min 0 min 3,6 C 0,1 C
08.11.2012 21:30 4,2 C 96 % 1017 hPa 0,0 l/m 12,2 km/h (2 Bft) W-SW22.5 250 0 min 0 min 3,6 C -0,3 C
08.11.2012 21:45 4,2 C 96 % 1017 hPa 0,0 l/m 9,4 km/h (2 Bft) W-SW 245 0 min 0 min 3,6 C 1,6 C
08.11.2012 22:00 4,2 C 96 % 1017 hPa 0,0 l/m 8,0 km/h (2 Bft) SW22.5 235 0 min 0 min 3,6 C 2,8 C
08.11.2012 22:15 4,2 C 96 % 1017 hPa 0,0 l/m 10,1 km/h (2 Bft) W-SW22.5 240 0 min 0 min 3,6 C 1,1 C
08.11.2012 22:30 4,3 C 97 % 1017 hPa 0,0 l/m 11,3 km/h (2 Bft) W-SW22.5 250 0 min 0 min 3,9 C 0,4 C
08.11.2012 22:45 4,3 C 97 % 1017 hPa 0,0 l/m 10,3 km/h (2 Bft) SW22.5 235 0 min 0 min 3,9 C 1,1 C
08.11.2012 23:00 4,3 C 97 % 1017 hPa 0,0 l/m 12,2 km/h (2 Bft) SW22.5 220 0 min 0 min 3,9 C -0,2 C
08.11.2012 23:15 4,3 C 97 % 1016 hPa 0,0 l/m 10,0 km/h (2 Bft) SW 225 0 min 0 min 3,9 C 1,3 C
08.11.2012 23:30 4,3 C 97 % 1016 hPa 0,0 l/m 10,8 km/h (2 Bft) S-SW22.5 210 0 min 0 min 3,9 C 0,7 C
08.11.2012 23:45 4,2 C 96 % 1016 hPa 0,0 l/m 12,1 km/h (2 Bft) SW22.5 225 0 min 0 min 3,6 C -0,2 C
_ Min-Zeit 08:00 13:45 13:45 - 22:00 - - - - 08:00 00:15
Minimum _ 4,1 C 89 % 1016 hPa - 8,0 km/h (2 Bft) - - - - 3,2 C -9,6 C
_ Max-Zeit 14:00 22:30 00:00 00:00 00:15 - - 00:00 00:00 12:45 22:00
Maximum _ 6,3 C 97 % 1022 hPa 0,0 l/m 46,1 km/h
W-SW (6 Bft)
- - 0 min 0 min 4,8 C 2,8 C
Durchschnitt _ 4,7 C 94 % 1018 hPa #0,0 l/m 22,8 km/h (4 Bft) W-SW - #0 min. #0 min. 3,8 C -4,0 C